Current Weather

Porter County Municipal Airpo

Porter County Municipal Airpo, Indiana (KVPZ)

Report from: Monday, May 23, 2022 1:56 AM CDT
Current time: Monday, May 23, 2022 2:49 AM CDT

Nearby weather
Weather history
Weather forecast

Temperature6.7°C (44.1°F)
Wind chill5.3°C (41.5°F)
Dew point3.3°C (37.9°F)
Winds 4 kts (2.1 m/s, 4.6 mph) North-Northeast (30°)
Visibility10 mi. (16.1 km)
Clouds Sky clear
Altimeter30.35 in.Hg (1028 mB)
Relative humidity79 %
Density altitude-1,376 ft. (-419 m)
Sea-level pressure102.8 kPa (1028 mB, 30.36 in.Hg)
Remarks Fully automated report
Automated weather observing station with precipitation discriminator
Flight conditions Visual Meteorological Conditions
Raw dataKVPZ 230656Z AUTO 03004KT 10SM CLR 07/03 A3035 RMK AO2 SLP281 T00670033
An error has occurred. This application may no longer respond until reloaded. Reload 🗙